sensor_id;sensor_type;location;lat;lon;timestamp;temperature;humidity
3190;DHT22;1606;51.946;10.558;2023-02-25T00:01:12;5.50;99.90
3190;DHT22;1606;51.946;10.558;2023-02-25T00:03:40;5.60;99.90
3190;DHT22;1606;51.946;10.558;2023-02-25T00:06:10;5.70;99.90
3190;DHT22;1606;51.946;10.558;2023-02-25T00:08:43;5.70;99.90
3190;DHT22;1606;51.946;10.558;2023-02-25T00:11:13;5.50;99.90
3190;DHT22;1606;51.946;10.558;2023-02-25T00:13:41;5.40;99.90
3190;DHT22;1606;51.946;10.558;2023-02-25T00:16:10;5.60;99.90
3190;DHT22;1606;51.946;10.558;2023-02-25T00:18:38;5.50;99.90
3190;DHT22;1606;51.946;10.558;2023-02-25T00:21:10;5.50;99.90
3190;DHT22;1606;51.946;10.558;2023-02-25T00:23:43;5.40;99.90
3190;DHT22;1606;51.946;10.558;2023-02-25T00:26:12;5.30;99.90
3190;DHT22;1606;51.946;10.558;2023-02-25T00:28:41;5.30;99.90
3190;DHT22;1606;51.946;10.558;2023-02-25T00:31:11;5.50;99.90
3190;DHT22;1606;51.946;10.558;2023-02-25T00:33:41;5.20;99.90
3190;DHT22;1606;51.946;10.558;2023-02-25T00:36:10;5.10;99.90
3190;DHT22;1606;51.946;10.558;2023-02-25T00:38:38;5.00;99.90
3190;DHT22;1606;51.946;10.558;2023-02-25T00:41:10;5.20;99.90
3190;DHT22;1606;51.946;10.558;2023-02-25T00:43:39;5.40;99.90
3190;DHT22;1606;51.946;10.558;2023-02-25T00:46:07;5.50;99.90
3190;DHT22;1606;51.946;10.558;2023-02-25T00:48:36;5.50;99.90
3190;DHT22;1606;51.946;10.558;2023-02-25T00:51:05;5.50;99.90
3190;DHT22;1606;51.946;10.558;2023-02-25T00:53:34;5.10;99.90
3190;DHT22;1606;51.946;10.558;2023-02-25T00:56:04;5.30;99.90
3190;DHT22;1606;51.946;10.558;2023-02-25T00:58:35;5.30;99.90
3190;DHT22;1606;51.946;10.558;2023-02-25T01:01:04;5.40;99.90
3190;DHT22;1606;51.946;10.558;2023-02-25T01:03:33;5.50;99.90
3190;DHT22;1606;51.946;10.558;2023-02-25T01:06:00;5.50;99.90
3190;DHT22;1606;51.946;10.558;2023-02-25T01:08:28;5.30;99.90
3190;DHT22;1606;51.946;10.558;2023-02-25T01:10:56;5.40;99.90
3190;DHT22;1606;51.946;10.558;2023-02-25T01:13:24;5.50;99.90
3190;DHT22;1606;51.946;10.558;2023-02-25T01:15:53;5.50;99.90
3190;DHT22;1606;51.946;10.558;2023-02-25T01:18:21;5.50;99.90
3190;DHT22;1606;51.946;10.558;2023-02-25T01:20:49;5.60;99.90
3190;DHT22;1606;51.946;10.558;2023-02-25T01:23:17;5.60;99.90
3190;DHT22;1606;51.946;10.558;2023-02-25T01:25:45;5.50;99.90
3190;DHT22;1606;51.946;10.558;2023-02-25T01:28:12;5.50;99.90
3190;DHT22;1606;51.946;10.558;2023-02-25T01:30:40;5.50;99.90
3190;DHT22;1606;51.946;10.558;2023-02-25T01:33:09;5.50;99.90
3190;DHT22;1606;51.946;10.558;2023-02-25T01:35:37;5.50;99.90
3190;DHT22;1606;51.946;10.558;2023-02-25T01:38:05;5.30;99.90
3190;DHT22;1606;51.946;10.558;2023-02-25T01:40:32;5.30;99.90
3190;DHT22;1606;51.946;10.558;2023-02-25T01:43:00;5.30;99.90
3190;DHT22;1606;51.946;10.558;2023-02-25T01:45:31;5.50;99.90
3190;DHT22;1606;51.946;10.558;2023-02-25T01:48:06;5.30;99.90
3190;DHT22;1606;51.946;10.558;2023-02-25T01:50:42;5.50;99.90
3190;DHT22;1606;51.946;10.558;2023-02-25T01:53:12;5.50;99.90
3190;DHT22;1606;51.946;10.558;2023-02-25T01:55:41;5.10;99.90
3190;DHT22;1606;51.946;10.558;2023-02-25T01:58:09;5.00;99.90
3190;DHT22;1606;51.946;10.558;2023-02-25T02:00:37;5.10;99.90
3190;DHT22;1606;51.946;10.558;2023-02-25T02:03:05;4.90;99.90
3190;DHT22;1606;51.946;10.558;2023-02-25T02:06:00;5.00;99.90
3190;DHT22;1606;51.946;10.558;2023-02-25T02:08:31;5.10;99.90
3190;DHT22;1606;51.946;10.558;2023-02-25T02:11:00;5.00;99.90
3190;DHT22;1606;51.946;10.558;2023-02-25T02:13:28;5.20;99.90
3190;DHT22;1606;51.946;10.558;2023-02-25T02:16:10;5.40;99.90
3190;DHT22;1606;51.946;10.558;2023-02-25T02:18:42;5.10;99.90
3190;DHT22;1606;51.946;10.558;2023-02-25T02:21:21;5.10;99.90
3190;DHT22;1606;51.946;10.558;2023-02-25T02:26:57;5.00;99.90
3190;DHT22;1606;51.946;10.558;2023-02-25T02:32:53;5.10;99.90
3190;DHT22;1606;51.946;10.558;2023-02-25T02:35:29;5.40;99.90
3190;DHT22;1606;51.946;10.558;2023-02-25T02:38:09;5.30;99.90
3190;DHT22;1606;51.946;10.558;2023-02-25T02:40:42;5.50;99.90
3190;DHT22;1606;51.946;10.558;2023-02-25T02:43:24;5.50;99.90
3190;DHT22;1606;51.946;10.558;2023-02-25T02:45:58;5.60;99.90
3190;DHT22;1606;51.946;10.558;2023-02-25T02:48:32;5.80;99.90
3190;DHT22;1606;51.946;10.558;2023-02-25T02:51:06;5.90;99.90
3190;DHT22;1606;51.946;10.558;2023-02-25T02:53:39;5.70;99.90
3190;DHT22;1606;51.946;10.558;2023-02-25T02:56:08;5.60;99.90
3190;DHT22;1606;51.946;10.558;2023-02-25T02:58:42;5.60;99.90
3190;DHT22;1606;51.946;10.558;2023-02-25T03:01:12;5.50;99.90
3190;DHT22;1606;51.946;10.558;2023-02-25T03:03:44;5.60;99.90
3190;DHT22;1606;51.946;10.558;2023-02-25T03:06:17;5.60;99.90
3190;DHT22;1606;51.946;10.558;2023-02-25T03:08:50;5.20;99.90
3190;DHT22;1606;51.946;10.558;2023-02-25T03:11:20;5.20;99.90
3190;DHT22;1606;51.946;10.558;2023-02-25T03:13:49;5.30;99.90
3190;DHT22;1606;51.946;10.558;2023-02-25T03:16:20;5.50;99.90
3190;DHT22;1606;51.946;10.558;2023-02-25T03:18:54;5.30;99.90
3190;DHT22;1606;51.946;10.558;2023-02-25T03:21:30;5.10;99.90
3190;DHT22;1606;51.946;10.558;2023-02-25T03:24:01;5.00;99.90
3190;DHT22;1606;51.946;10.558;2023-02-25T03:26:31;4.90;99.90
3190;DHT22;1606;51.946;10.558;2023-02-25T03:29:00;5.00;99.90
3190;DHT22;1606;51.946;10.558;2023-02-25T03:31:30;5.10;99.90
3190;DHT22;1606;51.946;10.558;2023-02-25T03:34:05;5.10;99.90
3190;DHT22;1606;51.946;10.558;2023-02-25T03:36:38;5.40;99.90
3190;DHT22;1606;51.946;10.558;2023-02-25T03:39:10;5.50;99.90
3190;DHT22;1606;51.946;10.558;2023-02-25T03:41:41;5.20;99.90
3190;DHT22;1606;51.946;10.558;2023-02-25T03:44:14;5.40;99.90
3190;DHT22;1606;51.946;10.558;2023-02-25T03:46:43;5.10;99.90
3190;DHT22;1606;51.946;10.558;2023-02-25T03:49:19;5.10;99.90
3190;DHT22;1606;51.946;10.558;2023-02-25T03:51:48;5.40;99.90
3190;DHT22;1606;51.946;10.558;2023-02-25T03:54:17;5.60;99.90
3190;DHT22;1606;51.946;10.558;2023-02-25T03:56:47;5.50;99.90
3190;DHT22;1606;51.946;10.558;2023-02-25T03:59:16;5.50;99.90
3190;DHT22;1606;51.946;10.558;2023-02-25T04:01:46;5.40;99.90
3190;DHT22;1606;51.946;10.558;2023-02-25T04:04:16;5.10;99.90
3190;DHT22;1606;51.946;10.558;2023-02-25T04:06:44;5.20;99.90
3190;DHT22;1606;51.946;10.558;2023-02-25T04:09:12;5.20;99.90
3190;DHT22;1606;51.946;10.558;2023-02-25T04:11:40;5.10;99.90
3190;DHT22;1606;51.946;10.558;2023-02-25T04:14:08;5.10;99.90
3190;DHT22;1606;51.946;10.558;2023-02-25T04:16:36;5.50;99.90
3190;DHT22;1606;51.946;10.558;2023-02-25T04:19:03;5.50;99.90
3190;DHT22;1606;51.946;10.558;2023-02-25T04:21:34;5.40;99.90
3190;DHT22;1606;51.946;10.558;2023-02-25T04:24:03;5.00;99.90
3190;DHT22;1606;51.946;10.558;2023-02-25T04:26:31;5.10;99.90
3190;DHT22;1606;51.946;10.558;2023-02-25T04:28:58;5.10;99.90
3190;DHT22;1606;51.946;10.558;2023-02-25T04:31:26;5.10;99.90
3190;DHT22;1606;51.946;10.558;2023-02-25T04:33:54;5.10;99.90
3190;DHT22;1606;51.946;10.558;2023-02-25T04:36:25;5.20;99.90
3190;DHT22;1606;51.946;10.558;2023-02-25T04:38:56;5.40;99.90
3190;DHT22;1606;51.946;10.558;2023-02-25T04:41:28;5.60;99.90
3190;DHT22;1606;51.946;10.558;2023-02-25T04:43:56;5.80;99.90
3190;DHT22;1606;51.946;10.558;2023-02-25T04:46:24;5.80;99.90
3190;DHT22;1606;51.946;10.558;2023-02-25T04:48:52;5.60;99.90
3190;DHT22;1606;51.946;10.558;2023-02-25T04:51:20;5.20;99.90
3190;DHT22;1606;51.946;10.558;2023-02-25T04:53:48;5.10;99.90
3190;DHT22;1606;51.946;10.558;2023-02-25T04:56:17;5.00;99.90
3190;DHT22;1606;51.946;10.558;2023-02-25T04:58:45;5.10;99.90
3190;DHT22;1606;51.946;10.558;2023-02-25T05:01:13;5.40;99.90
3190;DHT22;1606;51.946;10.558;2023-02-25T05:03:41;5.50;99.90
3190;DHT22;1606;51.946;10.558;2023-02-25T05:06:09;5.20;99.90
3190;DHT22;1606;51.946;10.558;2023-02-25T05:08:37;5.40;99.90
3190;DHT22;1606;51.946;10.558;2023-02-25T05:11:04;5.30;99.90
3190;DHT22;1606;51.946;10.558;2023-02-25T05:13:33;5.50;99.90
3190;DHT22;1606;51.946;10.558;2023-02-25T05:16:05;5.50;99.90
3190;DHT22;1606;51.946;10.558;2023-02-25T05:18:37;5.60;99.90
3190;DHT22;1606;51.946;10.558;2023-02-25T05:21:08;5.50;99.90
3190;DHT22;1606;51.946;10.558;2023-02-25T05:23:37;5.80;99.90
3190;DHT22;1606;51.946;10.558;2023-02-25T05:26:05;5.60;99.90
3190;DHT22;1606;51.946;10.558;2023-02-25T05:28:35;5.60;99.90
3190;DHT22;1606;51.946;10.558;2023-02-25T05:31:04;5.60;99.90
3190;DHT22;1606;51.946;10.558;2023-02-25T05:33:32;5.60;99.90
3190;DHT22;1606;51.946;10.558;2023-02-25T05:36:00;5.40;99.90
3190;DHT22;1606;51.946;10.558;2023-02-25T05:38:28;5.30;99.90
3190;DHT22;1606;51.946;10.558;2023-02-25T05:40:58;5.40;99.90
3190;DHT22;1606;51.946;10.558;2023-02-25T05:43:26;5.60;99.90
3190;DHT22;1606;51.946;10.558;2023-02-25T05:45:56;5.70;99.90
3190;DHT22;1606;51.946;10.558;2023-02-25T05:48:24;5.60;99.90
3190;DHT22;1606;51.946;10.558;2023-02-25T05:50:59;5.50;99.90
3190;DHT22;1606;51.946;10.558;2023-02-25T05:53:27;5.60;99.90
3190;DHT22;1606;51.946;10.558;2023-02-25T05:55:54;5.60;99.90
3190;DHT22;1606;51.946;10.558;2023-02-25T05:58:23;5.50;99.90
3190;DHT22;1606;51.946;10.558;2023-02-25T06:00:51;5.50;99.90
3190;DHT22;1606;51.946;10.558;2023-02-25T06:03:20;5.50;99.90
3190;DHT22;1606;51.946;10.558;2023-02-25T06:05:48;5.10;99.90
3190;DHT22;1606;51.946;10.558;2023-02-25T06:08:18;5.10;99.90
3190;DHT22;1606;51.946;10.558;2023-02-25T06:10:46;5.30;99.90
3190;DHT22;1606;51.946;10.558;2023-02-25T06:13:14;5.50;99.90
3190;DHT22;1606;51.946;10.558;2023-02-25T06:15:41;5.30;99.90
3190;DHT22;1606;51.946;10.558;2023-02-25T06:18:09;5.10;99.90
3190;DHT22;1606;51.946;10.558;2023-02-25T06:20:38;5.10;99.90
3190;DHT22;1606;51.946;10.558;2023-02-25T06:23:06;5.10;99.90
3190;DHT22;1606;51.946;10.558;2023-02-25T06:25:34;5.10;99.90
3190;DHT22;1606;51.946;10.558;2023-02-25T06:28:02;5.00;99.90
3190;DHT22;1606;51.946;10.558;2023-02-25T06:30:30;5.00;99.90
3190;DHT22;1606;51.946;10.558;2023-02-25T06:32:58;5.10;99.90
3190;DHT22;1606;51.946;10.558;2023-02-25T06:35:26;5.20;99.90
3190;DHT22;1606;51.946;10.558;2023-02-25T06:37:55;5.10;99.90
3190;DHT22;1606;51.946;10.558;2023-02-25T06:40:24;5.10;99.90
3190;DHT22;1606;51.946;10.558;2023-02-25T06:42:51;4.90;99.90
3190;DHT22;1606;51.946;10.558;2023-02-25T06:45:19;4.70;99.90
3190;DHT22;1606;51.946;10.558;2023-02-25T06:47:47;4.90;99.90
3190;DHT22;1606;51.946;10.558;2023-02-25T06:50:15;4.80;99.90
3190;DHT22;1606;51.946;10.558;2023-02-25T06:52:43;4.60;99.90
3190;DHT22;1606;51.946;10.558;2023-02-25T06:55:12;4.60;99.90
3190;DHT22;1606;51.946;10.558;2023-02-25T06:57:40;4.60;99.90
3190;DHT22;1606;51.946;10.558;2023-02-25T07:00:09;4.70;99.90
3190;DHT22;1606;51.946;10.558;2023-02-25T07:02:37;4.60;99.90
3190;DHT22;1606;51.946;10.558;2023-02-25T07:05:05;4.50;99.90
3190;DHT22;1606;51.946;10.558;2023-02-25T07:07:33;4.40;99.90
3190;DHT22;1606;51.946;10.558;2023-02-25T07:10:00;4.50;99.90
3190;DHT22;1606;51.946;10.558;2023-02-25T07:12:30;4.70;99.90
3190;DHT22;1606;51.946;10.558;2023-02-25T07:14:58;4.70;99.90
3190;DHT22;1606;51.946;10.558;2023-02-25T07:17:25;4.60;99.90
3190;DHT22;1606;51.946;10.558;2023-02-25T07:19:53;4.60;99.90
3190;DHT22;1606;51.946;10.558;2023-02-25T07:22:21;4.60;99.90
3190;DHT22;1606;51.946;10.558;2023-02-25T07:24:49;4.50;99.90
3190;DHT22;1606;51.946;10.558;2023-02-25T07:27:17;4.30;99.90
3190;DHT22;1606;51.946;10.558;2023-02-25T07:29:47;4.20;99.90
3190;DHT22;1606;51.946;10.558;2023-02-25T07:32:14;4.40;99.90
3190;DHT22;1606;51.946;10.558;2023-02-25T07:34:43;4.30;99.90
3190;DHT22;1606;51.946;10.558;2023-02-25T07:37:10;4.30;99.90
3190;DHT22;1606;51.946;10.558;2023-02-25T07:39:39;4.30;99.90
3190;DHT22;1606;51.946;10.558;2023-02-25T07:42:07;4.30;99.90
3190;DHT22;1606;51.946;10.558;2023-02-25T07:44:34;4.30;99.90
3190;DHT22;1606;51.946;10.558;2023-02-25T07:47:04;4.30;99.90
3190;DHT22;1606;51.946;10.558;2023-02-25T07:49:31;4.30;99.90
3190;DHT22;1606;51.946;10.558;2023-02-25T07:51:59;4.40;99.90
3190;DHT22;1606;51.946;10.558;2023-02-25T07:54:27;4.40;99.90
3190;DHT22;1606;51.946;10.558;2023-02-25T07:56:55;4.30;99.90
3190;DHT22;1606;51.946;10.558;2023-02-25T07:59:23;4.50;99.90
3190;DHT22;1606;51.946;10.558;2023-02-25T08:01:50;4.50;99.90
3190;DHT22;1606;51.946;10.558;2023-02-25T08:04:19;4.70;99.90
3190;DHT22;1606;51.946;10.558;2023-02-25T08:06:47;4.80;99.90
3190;DHT22;1606;51.946;10.558;2023-02-25T08:09:17;4.70;99.90
3190;DHT22;1606;51.946;10.558;2023-02-25T08:11:45;4.60;99.90
3190;DHT22;1606;51.946;10.558;2023-02-25T08:14:13;4.40;99.90
3190;DHT22;1606;51.946;10.558;2023-02-25T08:16:41;4.60;99.90
3190;DHT22;1606;51.946;10.558;2023-02-25T08:19:09;4.50;99.90
3190;DHT22;1606;51.946;10.558;2023-02-25T08:21:38;4.50;99.90
3190;DHT22;1606;51.946;10.558;2023-02-25T08:24:07;4.60;99.90
3190;DHT22;1606;51.946;10.558;2023-02-25T08:26:35;4.50;99.90
3190;DHT22;1606;51.946;10.558;2023-02-25T08:29:02;4.60;99.90
3190;DHT22;1606;51.946;10.558;2023-02-25T08:31:30;4.50;99.90
3190;DHT22;1606;51.946;10.558;2023-02-25T08:33:59;4.50;99.90
3190;DHT22;1606;51.946;10.558;2023-02-25T08:36:28;4.50;99.90
3190;DHT22;1606;51.946;10.558;2023-02-25T08:38:59;4.70;99.90
3190;DHT22;1606;51.946;10.558;2023-02-25T08:41:28;4.80;99.90
3190;DHT22;1606;51.946;10.558;2023-02-25T08:43:57;4.60;99.90
3190;DHT22;1606;51.946;10.558;2023-02-25T08:46:27;4.60;99.90
3190;DHT22;1606;51.946;10.558;2023-02-25T08:48:56;4.70;99.90
3190;DHT22;1606;51.946;10.558;2023-02-25T08:51:25;4.40;99.90
3190;DHT22;1606;51.946;10.558;2023-02-25T08:54:02;4.50;99.90
3190;DHT22;1606;51.946;10.558;2023-02-25T08:56:30;4.90;99.90
3190;DHT22;1606;51.946;10.558;2023-02-25T08:58:58;4.70;99.90
3190;DHT22;1606;51.946;10.558;2023-02-25T09:01:26;4.70;99.90
3190;DHT22;1606;51.946;10.558;2023-02-25T09:04:10;4.50;99.90
3190;DHT22;1606;51.946;10.558;2023-02-25T09:06:38;4.60;99.90
3190;DHT22;1606;51.946;10.558;2023-02-25T09:09:07;4.70;99.90
3190;DHT22;1606;51.946;10.558;2023-02-25T09:11:35;4.80;99.90
3190;DHT22;1606;51.946;10.558;2023-02-25T09:14:02;4.90;99.90
3190;DHT22;1606;51.946;10.558;2023-02-25T09:16:30;5.00;99.90
3190;DHT22;1606;51.946;10.558;2023-02-25T09:18:58;4.70;99.90
3190;DHT22;1606;51.946;10.558;2023-02-25T09:21:26;4.70;99.90
3190;DHT22;1606;51.946;10.558;2023-02-25T09:23:53;4.50;99.90
3190;DHT22;1606;51.946;10.558;2023-02-25T09:26:23;4.50;99.90
3190;DHT22;1606;51.946;10.558;2023-02-25T09:28:50;4.80;99.90
3190;DHT22;1606;51.946;10.558;2023-02-25T09:31:18;4.80;99.90
3190;DHT22;1606;51.946;10.558;2023-02-25T09:33:46;4.80;99.90
3190;DHT22;1606;51.946;10.558;2023-02-25T09:36:16;4.80;99.90
3190;DHT22;1606;51.946;10.558;2023-02-25T09:38:45;4.90;99.90
3190;DHT22;1606;51.946;10.558;2023-02-25T09:41:21;5.10;99.90
3190;DHT22;1606;51.946;10.558;2023-02-25T09:43:59;4.90;99.90
3190;DHT22;1606;51.946;10.558;2023-02-25T09:46:29;4.80;99.90
3190;DHT22;1606;51.946;10.558;2023-02-25T09:49:01;4.70;99.90
3190;DHT22;1606;51.946;10.558;2023-02-25T09:51:33;4.70;99.90
3190;DHT22;1606;51.946;10.558;2023-02-25T09:54:12;4.80;99.90
3190;DHT22;1606;51.946;10.558;2023-02-25T09:56:42;4.70;99.90
3190;DHT22;1606;51.946;10.558;2023-02-25T09:59:14;4.80;99.90
3190;DHT22;1606;51.946;10.558;2023-02-25T10:01:46;4.60;99.90
3190;DHT22;1606;51.946;10.558;2023-02-25T10:04:22;4.70;99.90
3190;DHT22;1606;51.946;10.558;2023-02-25T10:06:51;4.90;99.90
3190;DHT22;1606;51.946;10.558;2023-02-25T10:09:29;4.80;99.90
3190;DHT22;1606;51.946;10.558;2023-02-25T10:12:06;4.90;99.90
3190;DHT22;1606;51.946;10.558;2023-02-25T10:15:01;4.90;99.90
3190;DHT22;1606;51.946;10.558;2023-02-25T10:17:36;4.90;99.90
3190;DHT22;1606;51.946;10.558;2023-02-25T10:20:30;4.70;99.90
3190;DHT22;1606;51.946;10.558;2023-02-25T10:23:08;4.70;99.90
3190;DHT22;1606;51.946;10.558;2023-02-25T10:25:56;4.70;99.90
3190;DHT22;1606;51.946;10.558;2023-02-25T10:28:26;4.80;99.90
3190;DHT22;1606;51.946;10.558;2023-02-25T10:31:02;4.80;99.90
3190;DHT22;1606;51.946;10.558;2023-02-25T10:33:33;5.00;99.90
3190;DHT22;1606;51.946;10.558;2023-02-25T10:36:06;5.00;99.90
3190;DHT22;1606;51.946;10.558;2023-02-25T10:38:37;4.70;99.90
3190;DHT22;1606;51.946;10.558;2023-02-25T10:41:07;4.60;99.90
3190;DHT22;1606;51.946;10.558;2023-02-25T10:43:35;4.60;99.90
3190;DHT22;1606;51.946;10.558;2023-02-25T10:46:09;4.50;99.90
3190;DHT22;1606;51.946;10.558;2023-02-25T10:48:39;4.40;99.90
3190;DHT22;1606;51.946;10.558;2023-02-25T10:51:09;4.40;99.90
3190;DHT22;1606;51.946;10.558;2023-02-25T10:53:38;4.40;99.90
3190;DHT22;1606;51.946;10.558;2023-02-25T10:56:08;4.60;99.90
3190;DHT22;1606;51.946;10.558;2023-02-25T10:58:38;4.60;99.90
3190;DHT22;1606;51.946;10.558;2023-02-25T11:01:12;4.60;99.90
3190;DHT22;1606;51.946;10.558;2023-02-25T11:03:45;4.50;99.90
3190;DHT22;1606;51.946;10.558;2023-02-25T11:06:21;4.40;99.90
3190;DHT22;1606;51.946;10.558;2023-02-25T11:08:51;4.50;99.90
3190;DHT22;1606;51.946;10.558;2023-02-25T11:11:21;4.60;99.90
3190;DHT22;1606;51.946;10.558;2023-02-25T11:13:58;4.60;99.90
3190;DHT22;1606;51.946;10.558;2023-02-25T11:16:28;4.60;99.90
3190;DHT22;1606;51.946;10.558;2023-02-25T11:18:59;4.90;99.90
3190;DHT22;1606;51.946;10.558;2023-02-25T11:21:38;4.90;99.90
3190;DHT22;1606;51.946;10.558;2023-02-25T11:24:12;4.90;99.90
3190;DHT22;1606;51.946;10.558;2023-02-25T11:26:42;5.00;99.90
3190;DHT22;1606;51.946;10.558;2023-02-25T11:29:13;5.10;99.90
3190;DHT22;1606;51.946;10.558;2023-02-25T11:31:48;5.20;99.90
3190;DHT22;1606;51.946;10.558;2023-02-25T11:34:20;5.10;99.90
3190;DHT22;1606;51.946;10.558;2023-02-25T11:36:49;5.00;99.90
3190;DHT22;1606;51.946;10.558;2023-02-25T11:39:19;5.00;99.90
3190;DHT22;1606;51.946;10.558;2023-02-25T11:41:49;5.10;99.90
3190;DHT22;1606;51.946;10.558;2023-02-25T11:44:24;5.10;99.90
3190;DHT22;1606;51.946;10.558;2023-02-25T11:47:02;5.10;99.90
3190;DHT22;1606;51.946;10.558;2023-02-25T11:49:57;5.30;99.90
3190;DHT22;1606;51.946;10.558;2023-02-25T11:52:35;5.20;99.90
3190;DHT22;1606;51.946;10.558;2023-02-25T11:55:18;5.30;99.90
3190;DHT22;1606;51.946;10.558;2023-02-25T11:57:57;5.30;99.90
3190;DHT22;1606;51.946;10.558;2023-02-25T12:00:34;5.20;99.90
3190;DHT22;1606;51.946;10.558;2023-02-25T12:03:22;5.30;99.90
3190;DHT22;1606;51.946;10.558;2023-02-25T12:06:06;4.80;99.90
3190;DHT22;1606;51.946;10.558;2023-02-25T12:08:41;4.00;99.90
3190;DHT22;1606;51.946;10.558;2023-02-25T12:11:40;3.30;99.90
3190;DHT22;1606;51.946;10.558;2023-02-25T12:17:38;3.00;99.90
3190;DHT22;1606;51.946;10.558;2023-02-25T12:20:38;3.20;99.90
3190;DHT22;1606;51.946;10.558;2023-02-25T12:23:35;3.20;99.90
3190;DHT22;1606;51.946;10.558;2023-02-25T12:26:08;3.20;99.90
3190;DHT22;1606;51.946;10.558;2023-02-25T12:28:59;3.40;99.90
3190;DHT22;1606;51.946;10.558;2023-02-25T12:32:03;3.80;99.90
3190;DHT22;1606;51.946;10.558;2023-02-25T12:37:49;4.00;99.90
3190;DHT22;1606;51.946;10.558;2023-02-25T12:40:31;3.80;99.90
3190;DHT22;1606;51.946;10.558;2023-02-25T12:43:14;4.00;99.90
3190;DHT22;1606;51.946;10.558;2023-02-25T12:45:59;4.10;99.90
3190;DHT22;1606;51.946;10.558;2023-02-25T12:48:44;4.10;99.90
3190;DHT22;1606;51.946;10.558;2023-02-25T12:51:44;4.20;99.90
3190;DHT22;1606;51.946;10.558;2023-02-25T12:54:31;4.20;99.90
3190;DHT22;1606;51.946;10.558;2023-02-25T12:57:25;4.40;99.90
3190;DHT22;1606;51.946;10.558;2023-02-25T13:00:14;4.40;99.90
3190;DHT22;1606;51.946;10.558;2023-02-25T13:03:13;4.50;99.90
3190;DHT22;1606;51.946;10.558;2023-02-25T13:05:58;4.80;99.90
3190;DHT22;1606;51.946;10.558;2023-02-25T13:08:38;4.80;99.90
3190;DHT22;1606;51.946;10.558;2023-02-25T13:11:17;4.70;99.90
3190;DHT22;1606;51.946;10.558;2023-02-25T13:14:03;4.90;99.90
3190;DHT22;1606;51.946;10.558;2023-02-25T13:16:49;4.90;99.90
3190;DHT22;1606;51.946;10.558;2023-02-25T13:19:41;4.90;99.90
3190;DHT22;1606;51.946;10.558;2023-02-25T13:22:19;5.00;99.90
3190;DHT22;1606;51.946;10.558;2023-02-25T13:24:57;5.20;99.90
3190;DHT22;1606;51.946;10.558;2023-02-25T13:27:41;5.10;99.90
3190;DHT22;1606;51.946;10.558;2023-02-25T13:30:32;4.90;99.90
3190;DHT22;1606;51.946;10.558;2023-02-25T13:33:20;4.60;99.90
3190;DHT22;1606;51.946;10.558;2023-02-25T13:35:56;4.50;99.90
3190;DHT22;1606;51.946;10.558;2023-02-25T13:38:36;4.20;99.90
3190;DHT22;1606;51.946;10.558;2023-02-25T13:41:17;3.90;99.90
3190;DHT22;1606;51.946;10.558;2023-02-25T13:44:28;3.40;99.90
3190;DHT22;1606;51.946;10.558;2023-02-25T13:47:21;3.50;99.90
3190;DHT22;1606;51.946;10.558;2023-02-25T13:50:13;3.60;99.90
3190;DHT22;1606;51.946;10.558;2023-02-25T13:52:58;3.80;99.90
3190;DHT22;1606;51.946;10.558;2023-02-25T13:55:45;3.90;99.90
3190;DHT22;1606;51.946;10.558;2023-02-25T13:58:35;3.90;99.90
3190;DHT22;1606;51.946;10.558;2023-02-25T14:01:25;4.00;99.90
3190;DHT22;1606;51.946;10.558;2023-02-25T14:07:16;4.40;99.90
3190;DHT22;1606;51.946;10.558;2023-02-25T14:09:50;4.70;99.90
3190;DHT22;1606;51.946;10.558;2023-02-25T14:12:34;4.80;99.90
3190;DHT22;1606;51.946;10.558;2023-02-25T14:15:31;4.90;99.90
3190;DHT22;1606;51.946;10.558;2023-02-25T14:18:20;5.00;99.90
3190;DHT22;1606;51.946;10.558;2023-02-25T14:21:02;4.90;99.90
3190;DHT22;1606;51.946;10.558;2023-02-25T14:23:40;4.90;99.90
3190;DHT22;1606;51.946;10.558;2023-02-25T14:26:21;4.80;99.90
3190;DHT22;1606;51.946;10.558;2023-02-25T14:29:02;4.30;99.90
3190;DHT22;1606;51.946;10.558;2023-02-25T14:31:43;4.00;99.90
3190;DHT22;1606;51.946;10.558;2023-02-25T14:34:33;3.80;99.90
3190;DHT22;1606;51.946;10.558;2023-02-25T14:37:14;3.60;99.90
3190;DHT22;1606;51.946;10.558;2023-02-25T14:39:57;3.70;99.90
3190;DHT22;1606;51.946;10.558;2023-02-25T14:42:39;3.60;99.90
3190;DHT22;1606;51.946;10.558;2023-02-25T14:45:18;3.40;99.90
3190;DHT22;1606;51.946;10.558;2023-02-25T14:47:54;3.40;99.90
3190;DHT22;1606;51.946;10.558;2023-02-25T14:50:28;3.30;99.90
3190;DHT22;1606;51.946;10.558;2023-02-25T14:56:05;3.40;99.90
3190;DHT22;1606;51.946;10.558;2023-02-25T15:01:52;3.70;99.90
3190;DHT22;1606;51.946;10.558;2023-02-25T15:04:42;3.80;99.90
3190;DHT22;1606;51.946;10.558;2023-02-25T15:07:25;3.80;99.90
3190;DHT22;1606;51.946;10.558;2023-02-25T15:10:11;4.00;99.90
3190;DHT22;1606;51.946;10.558;2023-02-25T15:13:05;4.00;99.90
3190;DHT22;1606;51.946;10.558;2023-02-25T15:15:53;4.00;99.90
3190;DHT22;1606;51.946;10.558;2023-02-25T15:18:50;4.10;99.90
3190;DHT22;1606;51.946;10.558;2023-02-25T15:21:36;4.20;99.90
3190;DHT22;1606;51.946;10.558;2023-02-25T15:24:10;4.40;99.90
3190;DHT22;1606;51.946;10.558;2023-02-25T15:26:58;4.50;99.90
3190;DHT22;1606;51.946;10.558;2023-02-25T15:29:54;4.50;99.90
3190;DHT22;1606;51.946;10.558;2023-02-25T15:32:24;4.50;99.90
3190;DHT22;1606;51.946;10.558;2023-02-25T15:34:57;4.40;99.90
3190;DHT22;1606;51.946;10.558;2023-02-25T15:37:28;4.50;99.90
3190;DHT22;1606;51.946;10.558;2023-02-25T15:40:00;4.50;99.90
3190;DHT22;1606;51.946;10.558;2023-02-25T15:42:46;4.60;99.90
3190;DHT22;1606;51.946;10.558;2023-02-25T15:45:35;4.70;99.90
3190;DHT22;1606;51.946;10.558;2023-02-25T15:48:28;4.70;99.90
3190;DHT22;1606;51.946;10.558;2023-02-25T15:50:58;4.50;99.90
3190;DHT22;1606;51.946;10.558;2023-02-25T15:53:44;4.50;99.90
3190;DHT22;1606;51.946;10.558;2023-02-25T15:56:29;4.40;99.90
3190;DHT22;1606;51.946;10.558;2023-02-25T15:58:58;4.50;99.90
3190;DHT22;1606;51.946;10.558;2023-02-25T16:01:38;4.50;99.90
3190;DHT22;1606;51.946;10.558;2023-02-25T16:04:40;4.80;99.90
3190;DHT22;1606;51.946;10.558;2023-02-25T16:07:13;4.80;99.90
3190;DHT22;1606;51.946;10.558;2023-02-25T16:09:47;4.80;99.90
3190;DHT22;1606;51.946;10.558;2023-02-25T16:12:18;4.80;99.90
3190;DHT22;1606;51.946;10.558;2023-02-25T16:14:46;4.70;99.90
3190;DHT22;1606;51.946;10.558;2023-02-25T16:17:16;4.70;99.90
3190;DHT22;1606;51.946;10.558;2023-02-25T16:19:49;4.60;99.90
3190;DHT22;1606;51.946;10.558;2023-02-25T16:22:20;4.60;99.90
3190;DHT22;1606;51.946;10.558;2023-02-25T16:24:50;4.50;99.90
3190;DHT22;1606;51.946;10.558;2023-02-25T16:27:32;4.40;99.90
3190;DHT22;1606;51.946;10.558;2023-02-25T16:30:10;4.30;99.90
3190;DHT22;1606;51.946;10.558;2023-02-25T16:32:46;4.10;99.90
3190;DHT22;1606;51.946;10.558;2023-02-25T16:35:25;4.10;99.90
3190;DHT22;1606;51.946;10.558;2023-02-25T16:38:00;4.20;99.90
3190;DHT22;1606;51.946;10.558;2023-02-25T16:40:34;4.20;99.90
3190;DHT22;1606;51.946;10.558;2023-02-25T16:43:05;4.30;99.90
3190;DHT22;1606;51.946;10.558;2023-02-25T16:45:36;4.30;99.90
3190;DHT22;1606;51.946;10.558;2023-02-25T16:48:12;4.30;99.90
3190;DHT22;1606;51.946;10.558;2023-02-25T16:50:43;4.40;99.90
3190;DHT22;1606;51.946;10.558;2023-02-25T16:53:17;4.50;99.90
3190;DHT22;1606;51.946;10.558;2023-02-25T16:55:46;4.50;99.90
3190;DHT22;1606;51.946;10.558;2023-02-25T16:58:23;4.50;99.90
3190;DHT22;1606;51.946;10.558;2023-02-25T17:00:53;4.40;99.30
3190;DHT22;1606;51.946;10.558;2023-02-25T17:03:23;4.40;99.00
3190;DHT22;1606;51.946;10.558;2023-02-25T17:06:03;4.40;98.30